sensor_id;sensor_type;location;lat;lon;timestamp;P1;durP1;ratioP1;P2;durP2;ratioP2
83026;SDS011;72842;56.038;12.706;2023-12-20T00:00:50;5.63;;;1.13;;
83026;SDS011;72842;56.038;12.706;2023-12-20T00:03:16;4.60;;;1.80;;
83026;SDS011;72842;56.038;12.706;2023-12-20T00:05:41;6.88;;;1.55;;
83026;SDS011;72842;56.038;12.706;2023-12-20T00:08:07;4.78;;;1.38;;
83026;SDS011;72842;56.038;12.706;2023-12-20T00:10:32;7.03;;;2.00;;
83026;SDS011;72842;56.038;12.706;2023-12-20T00:12:58;3.30;;;1.98;;
83026;SDS011;72842;56.038;12.706;2023-12-20T00:15:23;5.53;;;1.55;;
83026;SDS011;72842;56.038;12.706;2023-12-20T00:17:48;5.88;;;1.60;;
83026;SDS011;72842;56.038;12.706;2023-12-20T00:20:14;5.90;;;1.45;;
83026;SDS011;72842;56.038;12.706;2023-12-20T00:22:39;6.53;;;1.70;;
83026;SDS011;72842;56.038;12.706;2023-12-20T00:25:05;6.28;;;1.80;;
83026;SDS011;72842;56.038;12.706;2023-12-20T00:27:30;3.40;;;1.40;;
83026;SDS011;72842;56.038;12.706;2023-12-20T00:29:56;5.35;;;1.48;;
83026;SDS011;72842;56.038;12.706;2023-12-20T00:32:21;5.93;;;1.85;;
83026;SDS011;72842;56.038;12.706;2023-12-20T00:34:46;4.93;;;1.55;;
83026;SDS011;72842;56.038;12.706;2023-12-20T00:37:12;6.10;;;1.38;;
83026;SDS011;72842;56.038;12.706;2023-12-20T00:39:37;5.38;;;1.52;;
83026;SDS011;72842;56.038;12.706;2023-12-20T00:42:03;4.88;;;1.55;;
83026;SDS011;72842;56.038;12.706;2023-12-20T00:44:28;5.07;;;1.33;;
83026;SDS011;72842;56.038;12.706;2023-12-20T00:46:54;5.85;;;1.27;;
83026;SDS011;72842;56.038;12.706;2023-12-20T00:49:19;3.78;;;1.52;;
83026;SDS011;72842;56.038;12.706;2023-12-20T00:51:44;5.97;;;1.60;;
83026;SDS011;72842;56.038;12.706;2023-12-20T00:54:10;4.78;;;1.27;;
83026;SDS011;72842;56.038;12.706;2023-12-20T00:56:35;5.47;;;1.55;;
83026;SDS011;72842;56.038;12.706;2023-12-20T00:59:01;2.65;;;1.00;;
83026;SDS011;72842;56.038;12.706;2023-12-20T01:01:26;4.60;;;1.40;;
83026;SDS011;72842;56.038;12.706;2023-12-20T01:03:52;3.88;;;1.10;;
83026;SDS011;72842;56.038;12.706;2023-12-20T01:06:17;3.95;;;1.10;;
83026;SDS011;72842;56.038;12.706;2023-12-20T01:08:43;6.20;;;1.70;;
83026;SDS011;72842;56.038;12.706;2023-12-20T01:11:08;5.15;;;1.40;;
83026;SDS011;72842;56.038;12.706;2023-12-20T01:13:34;6.30;;;1.42;;
83026;SDS011;72842;56.038;12.706;2023-12-20T01:16:00;6.60;;;1.30;;
83026;SDS011;72842;56.038;12.706;2023-12-20T01:18:26;4.55;;;1.40;;
83026;SDS011;72842;56.038;12.706;2023-12-20T01:20:51;6.18;;;1.50;;
83026;SDS011;72842;56.038;12.706;2023-12-20T01:23:17;5.60;;;1.13;;
83026;SDS011;72842;56.038;12.706;2023-12-20T01:25:42;2.25;;;0.75;;
83026;SDS011;72842;56.038;12.706;2023-12-20T01:28:08;4.57;;;1.17;;
83026;SDS011;72842;56.038;12.706;2023-12-20T01:30:33;4.93;;;1.23;;
83026;SDS011;72842;56.038;12.706;2023-12-20T01:33:00;6.50;;;1.83;;
83026;SDS011;72842;56.038;12.706;2023-12-20T01:35:25;4.78;;;1.25;;
83026;SDS011;72842;56.038;12.706;2023-12-20T01:37:51;4.72;;;1.17;;
83026;SDS011;72842;56.038;12.706;2023-12-20T01:40:16;5.47;;;1.13;;
83026;SDS011;72842;56.038;12.706;2023-12-20T01:42:42;4.55;;;1.35;;
83026;SDS011;72842;56.038;12.706;2023-12-20T01:45:07;3.95;;;1.17;;
83026;SDS011;72842;56.038;12.706;2023-12-20T01:47:33;5.85;;;1.13;;
83026;SDS011;72842;56.038;12.706;2023-12-20T01:49:59;4.80;;;1.48;;
83026;SDS011;72842;56.038;12.706;2023-12-20T01:52:24;6.60;;;2.10;;
83026;SDS011;72842;56.038;12.706;2023-12-20T01:54:51;3.45;;;1.40;;
83026;SDS011;72842;56.038;12.706;2023-12-20T01:57:17;5.10;;;1.63;;
83026;SDS011;72842;56.038;12.706;2023-12-20T01:59:42;3.35;;;1.40;;
83026;SDS011;72842;56.038;12.706;2023-12-20T02:02:09;5.32;;;1.33;;
83026;SDS011;72842;56.038;12.706;2023-12-20T02:04:37;4.72;;;1.15;;
83026;SDS011;72842;56.038;12.706;2023-12-20T02:07:03;5.68;;;1.33;;
83026;SDS011;72842;56.038;12.706;2023-12-20T02:09:28;3.95;;;1.67;;
83026;SDS011;72842;56.038;12.706;2023-12-20T02:11:54;8.27;;;1.33;;
83026;SDS011;72842;56.038;12.706;2023-12-20T02:14:19;5.28;;;1.55;;
83026;SDS011;72842;56.038;12.706;2023-12-20T02:16:45;4.60;;;1.05;;
83026;SDS011;72842;56.038;12.706;2023-12-20T02:19:12;2.88;;;1.27;;
83026;SDS011;72842;56.038;12.706;2023-12-20T02:21:39;5.88;;;1.30;;
83026;SDS011;72842;56.038;12.706;2023-12-20T02:24:05;6.50;;;1.30;;
83026;SDS011;72842;56.038;12.706;2023-12-20T02:26:31;5.07;;;1.50;;
83026;SDS011;72842;56.038;12.706;2023-12-20T02:28:58;5.60;;;1.33;;
83026;SDS011;72842;56.038;12.706;2023-12-20T02:31:24;4.40;;;1.15;;
83026;SDS011;72842;56.038;12.706;2023-12-20T02:33:49;7.05;;;1.60;;
83026;SDS011;72842;56.038;12.706;2023-12-20T02:36:15;5.43;;;1.20;;
83026;SDS011;72842;56.038;12.706;2023-12-20T02:38:40;3.22;;;1.33;;
83026;SDS011;72842;56.038;12.706;2023-12-20T02:41:06;4.10;;;1.15;;
83026;SDS011;72842;56.038;12.706;2023-12-20T02:43:31;8.23;;;1.65;;
83026;SDS011;72842;56.038;12.706;2023-12-20T02:45:57;4.72;;;1.50;;
83026;SDS011;72842;56.038;12.706;2023-12-20T02:48:22;7.88;;;2.05;;
83026;SDS011;72842;56.038;12.706;2023-12-20T02:50:47;5.72;;;1.60;;
83026;SDS011;72842;56.038;12.706;2023-12-20T02:53:14;4.60;;;1.67;;
83026;SDS011;72842;56.038;12.706;2023-12-20T02:55:40;7.85;;;2.60;;
83026;SDS011;72842;56.038;12.706;2023-12-20T02:58:05;7.63;;;2.13;;
83026;SDS011;72842;56.038;12.706;2023-12-20T03:00:31;8.27;;;3.28;;
83026;SDS011;72842;56.038;12.706;2023-12-20T03:02:56;7.70;;;2.70;;
83026;SDS011;72842;56.038;12.706;2023-12-20T03:05:21;8.93;;;3.25;;
83026;SDS011;72842;56.038;12.706;2023-12-20T03:07:47;8.35;;;3.47;;
83026;SDS011;72842;56.038;12.706;2023-12-20T03:10:12;9.73;;;3.47;;
83026;SDS011;72842;56.038;12.706;2023-12-20T03:12:38;5.63;;;2.92;;
83026;SDS011;72842;56.038;12.706;2023-12-20T03:15:03;9.63;;;2.83;;
83026;SDS011;72842;56.038;12.706;2023-12-20T03:17:29;7.88;;;3.05;;
83026;SDS011;72842;56.038;12.706;2023-12-20T03:19:54;5.30;;;3.00;;
83026;SDS011;72842;56.038;12.706;2023-12-20T03:22:20;7.95;;;3.15;;
83026;SDS011;72842;56.038;12.706;2023-12-20T03:24:45;6.05;;;2.58;;
83026;SDS011;72842;56.038;12.706;2023-12-20T03:27:10;5.93;;;2.80;;
83026;SDS011;72842;56.038;12.706;2023-12-20T03:29:36;6.30;;;2.50;;
83026;SDS011;72842;56.038;12.706;2023-12-20T03:32:01;6.82;;;2.53;;
83026;SDS011;72842;56.038;12.706;2023-12-20T03:34:27;6.65;;;2.45;;
83026;SDS011;72842;56.038;12.706;2023-12-20T03:36:54;8.07;;;2.28;;
83026;SDS011;72842;56.038;12.706;2023-12-20T03:39:19;7.32;;;2.40;;
83026;SDS011;72842;56.038;12.706;2023-12-20T03:41:45;7.95;;;2.70;;
83026;SDS011;72842;56.038;12.706;2023-12-20T03:44:10;5.85;;;2.40;;
83026;SDS011;72842;56.038;12.706;2023-12-20T03:46:35;5.22;;;2.17;;
83026;SDS011;72842;56.038;12.706;2023-12-20T03:49:01;6.20;;;2.42;;
83026;SDS011;72842;56.038;12.706;2023-12-20T03:51:27;4.35;;;1.83;;
83026;SDS011;72842;56.038;12.706;2023-12-20T03:53:52;6.03;;;2.30;;
83026;SDS011;72842;56.038;12.706;2023-12-20T03:56:18;4.93;;;1.95;;
83026;SDS011;72842;56.038;12.706;2023-12-20T03:58:43;5.90;;;1.77;;
83026;SDS011;72842;56.038;12.706;2023-12-20T04:01:09;7.75;;;2.38;;
83026;SDS011;72842;56.038;12.706;2023-12-20T04:03:35;10.40;;;2.85;;
83026;SDS011;72842;56.038;12.706;2023-12-20T04:06:01;6.20;;;1.80;;
83026;SDS011;72842;56.038;12.706;2023-12-20T04:08:26;6.97;;;1.83;;
83026;SDS011;72842;56.038;12.706;2023-12-20T04:10:51;5.90;;;2.13;;
83026;SDS011;72842;56.038;12.706;2023-12-20T04:13:17;7.32;;;2.17;;
83026;SDS011;72842;56.038;12.706;2023-12-20T04:15:43;8.73;;;2.50;;
83026;SDS011;72842;56.038;12.706;2023-12-20T04:18:08;8.05;;;1.98;;
83026;SDS011;72842;56.038;12.706;2023-12-20T04:20:34;4.20;;;1.42;;
83026;SDS011;72842;56.038;12.706;2023-12-20T04:22:59;8.05;;;2.00;;
83026;SDS011;72842;56.038;12.706;2023-12-20T04:25:24;5.40;;;2.33;;
83026;SDS011;72842;56.038;12.706;2023-12-20T04:27:50;8.05;;;2.47;;
83026;SDS011;72842;56.038;12.706;2023-12-20T04:30:15;6.28;;;2.13;;
83026;SDS011;72842;56.038;12.706;2023-12-20T04:32:41;6.97;;;1.60;;
83026;SDS011;72842;56.038;12.706;2023-12-20T04:35:06;4.63;;;1.48;;
83026;SDS011;72842;56.038;12.706;2023-12-20T04:37:33;8.50;;;2.38;;
83026;SDS011;72842;56.038;12.706;2023-12-20T04:39:59;5.45;;;2.67;;
83026;SDS011;72842;56.038;12.706;2023-12-20T04:42:24;7.72;;;1.45;;
83026;SDS011;72842;56.038;12.706;2023-12-20T04:44:49;7.55;;;2.20;;
83026;SDS011;72842;56.038;12.706;2023-12-20T04:47:15;8.50;;;1.73;;
83026;SDS011;72842;56.038;12.706;2023-12-20T04:49:41;4.70;;;1.17;;
83026;SDS011;72842;56.038;12.706;2023-12-20T04:52:06;6.20;;;1.40;;
83026;SDS011;72842;56.038;12.706;2023-12-20T04:54:31;9.68;;;2.58;;
83026;SDS011;72842;56.038;12.706;2023-12-20T04:56:57;6.50;;;1.15;;
83026;SDS011;72842;56.038;12.706;2023-12-20T04:59:22;9.63;;;1.75;;
83026;SDS011;72842;56.038;12.706;2023-12-20T05:01:48;6.60;;;2.08;;
83026;SDS011;72842;56.038;12.706;2023-12-20T05:04:13;5.47;;;1.63;;
83026;SDS011;72842;56.038;12.706;2023-12-20T05:06:38;5.38;;;1.48;;
83026;SDS011;72842;56.038;12.706;2023-12-20T05:09:04;5.93;;;1.73;;
83026;SDS011;72842;56.038;12.706;2023-12-20T05:11:29;5.18;;;2.15;;
83026;SDS011;72842;56.038;12.706;2023-12-20T05:13:55;6.93;;;1.35;;
83026;SDS011;72842;56.038;12.706;2023-12-20T05:16:21;3.97;;;1.40;;
83026;SDS011;72842;56.038;12.706;2023-12-20T05:18:47;4.72;;;1.17;;
83026;SDS011;72842;56.038;12.706;2023-12-20T05:21:15;6.40;;;1.70;;
83026;SDS011;72842;56.038;12.706;2023-12-20T05:23:40;6.18;;;1.48;;
83026;SDS011;72842;56.038;12.706;2023-12-20T05:26:06;5.50;;;1.40;;
83026;SDS011;72842;56.038;12.706;2023-12-20T05:28:31;4.55;;;1.42;;
83026;SDS011;72842;56.038;12.706;2023-12-20T05:30:57;4.63;;;1.58;;
83026;SDS011;72842;56.038;12.706;2023-12-20T05:33:22;3.95;;;1.30;;
83026;SDS011;72842;56.038;12.706;2023-12-20T05:35:48;5.63;;;1.75;;
83026;SDS011;72842;56.038;12.706;2023-12-20T05:38:13;6.15;;;1.55;;
83026;SDS011;72842;56.038;12.706;2023-12-20T05:40:39;4.30;;;1.13;;
83026;SDS011;72842;56.038;12.706;2023-12-20T05:43:04;5.80;;;1.30;;
83026;SDS011;72842;56.038;12.706;2023-12-20T05:45:30;3.72;;;0.80;;
83026;SDS011;72842;56.038;12.706;2023-12-20T05:47:55;4.00;;;1.30;;
83026;SDS011;72842;56.038;12.706;2023-12-20T05:50:20;4.57;;;1.15;;
83026;SDS011;72842;56.038;12.706;2023-12-20T05:52:46;5.47;;;1.52;;
83026;SDS011;72842;56.038;12.706;2023-12-20T05:55:11;2.95;;;1.00;;
83026;SDS011;72842;56.038;12.706;2023-12-20T05:57:37;4.65;;;1.05;;
83026;SDS011;72842;56.038;12.706;2023-12-20T06:00:02;5.53;;;1.10;;
83026;SDS011;72842;56.038;12.706;2023-12-20T06:02:28;9.10;;;1.50;;
83026;SDS011;72842;56.038;12.706;2023-12-20T06:04:54;6.80;;;1.45;;
83026;SDS011;72842;56.038;12.706;2023-12-20T06:07:19;6.32;;;1.73;;
83026;SDS011;72842;56.038;12.706;2023-12-20T06:09:45;5.03;;;1.02;;
83026;SDS011;72842;56.038;12.706;2023-12-20T06:12:11;3.67;;;1.10;;
83026;SDS011;72842;56.038;12.706;2023-12-20T06:14:36;4.28;;;1.48;;
83026;SDS011;72842;56.038;12.706;2023-12-20T06:17:02;3.40;;;1.15;;
83026;SDS011;72842;56.038;12.706;2023-12-20T06:19:27;3.72;;;1.15;;
83026;SDS011;72842;56.038;12.706;2023-12-20T06:21:53;7.07;;;1.35;;
83026;SDS011;72842;56.038;12.706;2023-12-20T06:24:19;3.17;;;1.10;;
83026;SDS011;72842;56.038;12.706;2023-12-20T06:26:44;6.75;;;1.67;;
83026;SDS011;72842;56.038;12.706;2023-12-20T06:29:10;4.55;;;1.13;;
83026;SDS011;72842;56.038;12.706;2023-12-20T06:31:35;5.22;;;1.58;;
83026;SDS011;72842;56.038;12.706;2023-12-20T06:34:00;3.97;;;1.02;;
83026;SDS011;72842;56.038;12.706;2023-12-20T06:36:26;3.83;;;1.55;;
83026;SDS011;72842;56.038;12.706;2023-12-20T06:38:52;4.05;;;0.98;;
83026;SDS011;72842;56.038;12.706;2023-12-20T06:41:18;7.82;;;1.90;;
83026;SDS011;72842;56.038;12.706;2023-12-20T06:43:43;7.13;;;1.63;;
83026;SDS011;72842;56.038;12.706;2023-12-20T06:46:09;5.45;;;1.40;;
83026;SDS011;72842;56.038;12.706;2023-12-20T06:48:35;4.22;;;0.82;;
83026;SDS011;72842;56.038;12.706;2023-12-20T06:51:00;7.65;;;0.95;;
83026;SDS011;72842;56.038;12.706;2023-12-20T06:53:29;4.60;;;1.35;;
83026;SDS011;72842;56.038;12.706;2023-12-20T06:55:55;4.55;;;1.17;;
83026;SDS011;72842;56.038;12.706;2023-12-20T06:58:24;4.22;;;1.10;;
83026;SDS011;72842;56.038;12.706;2023-12-20T07:00:50;4.82;;;1.33;;
83026;SDS011;72842;56.038;12.706;2023-12-20T07:03:16;3.60;;;1.10;;
83026;SDS011;72842;56.038;12.706;2023-12-20T07:05:42;5.35;;;1.25;;
83026;SDS011;72842;56.038;12.706;2023-12-20T07:08:07;3.80;;;1.10;;
83026;SDS011;72842;56.038;12.706;2023-12-20T07:10:32;3.35;;;1.33;;
83026;SDS011;72842;56.038;12.706;2023-12-20T07:12:58;4.13;;;1.70;;
83026;SDS011;72842;56.038;12.706;2023-12-20T07:15:23;2.05;;;0.80;;
83026;SDS011;72842;56.038;12.706;2023-12-20T07:17:49;5.70;;;1.27;;
83026;SDS011;72842;56.038;12.706;2023-12-20T07:20:14;3.67;;;1.77;;
83026;SDS011;72842;56.038;12.706;2023-12-20T07:22:40;5.13;;;1.42;;
83026;SDS011;72842;56.038;12.706;2023-12-20T07:25:05;5.15;;;1.20;;
83026;SDS011;72842;56.038;12.706;2023-12-20T07:27:32;4.05;;;1.20;;
83026;SDS011;72842;56.038;12.706;2023-12-20T07:29:57;3.88;;;1.40;;
83026;SDS011;72842;56.038;12.706;2023-12-20T07:32:22;2.40;;;0.68;;
83026;SDS011;72842;56.038;12.706;2023-12-20T07:34:48;6.15;;;1.67;;
83026;SDS011;72842;56.038;12.706;2023-12-20T07:37:13;4.28;;;0.85;;
83026;SDS011;72842;56.038;12.706;2023-12-20T07:39:39;3.15;;;0.93;;
83026;SDS011;72842;56.038;12.706;2023-12-20T07:42:06;4.25;;;1.25;;
83026;SDS011;72842;56.038;12.706;2023-12-20T07:44:34;2.80;;;1.05;;
83026;SDS011;72842;56.038;12.706;2023-12-20T07:47:03;2.63;;;0.90;;
83026;SDS011;72842;56.038;12.706;2023-12-20T07:49:29;4.07;;;0.80;;
83026;SDS011;72842;56.038;12.706;2023-12-20T07:51:55;3.22;;;0.95;;
83026;SDS011;72842;56.038;12.706;2023-12-20T07:54:20;3.55;;;0.90;;
83026;SDS011;72842;56.038;12.706;2023-12-20T07:56:46;7.30;;;1.02;;
83026;SDS011;72842;56.038;12.706;2023-12-20T07:59:12;4.68;;;1.27;;
83026;SDS011;72842;56.038;12.706;2023-12-20T08:01:37;3.60;;;0.95;;
83026;SDS011;72842;56.038;12.706;2023-12-20T08:04:03;2.40;;;0.70;;
83026;SDS011;72842;56.038;12.706;2023-12-20T08:06:28;4.88;;;0.98;;
83026;SDS011;72842;56.038;12.706;2023-12-20T08:08:54;4.20;;;1.10;;
83026;SDS011;72842;56.038;12.706;2023-12-20T08:11:19;2.38;;;0.50;;
83026;SDS011;72842;56.038;12.706;2023-12-20T08:13:44;2.90;;;0.88;;
83026;SDS011;72842;56.038;12.706;2023-12-20T08:16:10;2.63;;;1.00;;
83026;SDS011;72842;56.038;12.706;2023-12-20T08:18:38;4.10;;;0.75;;
83026;SDS011;72842;56.038;12.706;2023-12-20T08:21:04;3.75;;;0.82;;
83026;SDS011;72842;56.038;12.706;2023-12-20T08:23:29;2.10;;;1.00;;
83026;SDS011;72842;56.038;12.706;2023-12-20T08:25:54;3.75;;;0.85;;
83026;SDS011;72842;56.038;12.706;2023-12-20T08:28:20;3.25;;;0.95;;
83026;SDS011;72842;56.038;12.706;2023-12-20T08:30:45;3.63;;;1.15;;
83026;SDS011;72842;56.038;12.706;2023-12-20T08:33:11;3.72;;;1.08;;
83026;SDS011;72842;56.038;12.706;2023-12-20T08:35:38;3.92;;;1.02;;
83026;SDS011;72842;56.038;12.706;2023-12-20T08:38:05;2.67;;;1.30;;
83026;SDS011;72842;56.038;12.706;2023-12-20T08:40:30;4.95;;;1.13;;
83026;SDS011;72842;56.038;12.706;2023-12-20T08:42:56;3.72;;;0.88;;
83026;SDS011;72842;56.038;12.706;2023-12-20T08:45:21;3.78;;;1.00;;
83026;SDS011;72842;56.038;12.706;2023-12-20T08:47:47;2.35;;;0.65;;
83026;SDS011;72842;56.038;12.706;2023-12-20T08:50:12;2.17;;;0.93;;
83026;SDS011;72842;56.038;12.706;2023-12-20T08:52:38;0.70;;;0.40;;
83026;SDS011;72842;56.038;12.706;2023-12-20T08:55:03;3.13;;;0.55;;
83026;SDS011;72842;56.038;12.706;2023-12-20T08:57:29;2.15;;;0.63;;
83026;SDS011;72842;56.038;12.706;2023-12-20T08:59:56;3.28;;;1.05;;
83026;SDS011;72842;56.038;12.706;2023-12-20T09:02:22;2.10;;;0.85;;
83026;SDS011;72842;56.038;12.706;2023-12-20T09:04:47;1.10;;;0.38;;
83026;SDS011;72842;56.038;12.706;2023-12-20T09:09:48;0.60;;;0.35;;
83026;SDS011;72842;56.038;12.706;2023-12-20T09:12:13;0.98;;;0.50;;
83026;SDS011;72842;56.038;12.706;2023-12-20T09:14:39;0.88;;;0.52;;
83026;SDS011;72842;56.038;12.706;2023-12-20T09:17:04;3.83;;;0.88;;
83026;SDS011;72842;56.038;12.706;2023-12-20T09:19:30;2.50;;;0.70;;
83026;SDS011;72842;56.038;12.706;2023-12-20T09:21:55;0.73;;;0.45;;
83026;SDS011;72842;56.038;12.706;2023-12-20T09:24:21;1.45;;;0.30;;
83026;SDS011;72842;56.038;12.706;2023-12-20T09:26:46;2.33;;;0.55;;
83026;SDS011;72842;56.038;12.706;2023-12-20T09:29:11;2.25;;;0.55;;
83026;SDS011;72842;56.038;12.706;2023-12-20T09:31:40;1.85;;;0.60;;
83026;SDS011;72842;56.038;12.706;2023-12-20T09:34:06;1.20;;;0.40;;
83026;SDS011;72842;56.038;12.706;2023-12-20T09:36:32;1.88;;;0.60;;
83026;SDS011;72842;56.038;12.706;2023-12-20T09:39:01;0.45;;;0.40;;
83026;SDS011;72842;56.038;12.706;2023-12-20T09:41:27;2.00;;;0.60;;
83026;SDS011;72842;56.038;12.706;2023-12-20T09:43:56;3.97;;;0.52;;
83026;SDS011;72842;56.038;12.706;2023-12-20T09:46:25;1.52;;;0.55;;
83026;SDS011;72842;56.038;12.706;2023-12-20T09:48:54;2.08;;;0.40;;
83026;SDS011;72842;56.038;12.706;2023-12-20T09:51:20;2.90;;;0.60;;
83026;SDS011;72842;56.038;12.706;2023-12-20T09:53:46;1.58;;;0.60;;
83026;SDS011;72842;56.038;12.706;2023-12-20T09:56:13;2.20;;;0.60;;
83026;SDS011;72842;56.038;12.706;2023-12-20T09:58:39;3.17;;;1.00;;
83026;SDS011;72842;56.038;12.706;2023-12-20T10:01:05;1.85;;;0.65;;
83026;SDS011;72842;56.038;12.706;2023-12-20T10:03:32;2.25;;;0.82;;
83026;SDS011;72842;56.038;12.706;2023-12-20T10:05:59;1.77;;;0.55;;
83026;SDS011;72842;56.038;12.706;2023-12-20T10:08:25;1.52;;;0.60;;
83026;SDS011;72842;56.038;12.706;2023-12-20T10:10:51;2.65;;;0.80;;
83026;SDS011;72842;56.038;12.706;2023-12-20T10:13:17;1.42;;;0.73;;
83026;SDS011;72842;56.038;12.706;2023-12-20T10:15:42;2.95;;;0.80;;
83026;SDS011;72842;56.038;12.706;2023-12-20T10:18:08;2.63;;;0.90;;
83026;SDS011;72842;56.038;12.706;2023-12-20T10:20:33;3.38;;;1.08;;
83026;SDS011;72842;56.038;12.706;2023-12-20T10:22:59;1.38;;;0.80;;
83026;SDS011;72842;56.038;12.706;2023-12-20T10:25:25;1.88;;;0.65;;
83026;SDS011;72842;56.038;12.706;2023-12-20T10:28:08;1.77;;;1.10;;
83026;SDS011;72842;56.038;12.706;2023-12-20T10:30:38;1.48;;;0.73;;
83026;SDS011;72842;56.038;12.706;2023-12-20T10:33:05;1.70;;;0.60;;
83026;SDS011;72842;56.038;12.706;2023-12-20T10:35:32;1.30;;;0.80;;
83026;SDS011;72842;56.038;12.706;2023-12-20T10:37:58;1.77;;;0.70;;
83026;SDS011;72842;56.038;12.706;2023-12-20T10:40:32;2.42;;;0.80;;
83026;SDS011;72842;56.038;12.706;2023-12-20T10:43:01;3.00;;;0.82;;
83026;SDS011;72842;56.038;12.706;2023-12-20T10:45:27;3.80;;;1.38;;
83026;SDS011;72842;56.038;12.706;2023-12-20T10:47:52;2.90;;;0.73;;
83026;SDS011;72842;56.038;12.706;2023-12-20T10:50:19;1.88;;;0.63;;
83026;SDS011;72842;56.038;12.706;2023-12-20T10:52:45;3.85;;;1.13;;
83026;SDS011;72842;56.038;12.706;2023-12-20T10:55:12;3.28;;;1.00;;
83026;SDS011;72842;56.038;12.706;2023-12-20T10:57:38;4.07;;;0.88;;
83026;SDS011;72842;56.038;12.706;2023-12-20T11:00:04;3.92;;;1.17;;
83026;SDS011;72842;56.038;12.706;2023-12-20T11:02:34;2.03;;;1.00;;
83026;SDS011;72842;56.038;12.706;2023-12-20T11:07:38;4.50;;;1.30;;
83026;SDS011;72842;56.038;12.706;2023-12-20T11:15:22;3.33;;;0.85;;
83026;SDS011;72842;56.038;12.706;2023-12-20T11:17:56;3.53;;;0.90;;
83026;SDS011;72842;56.038;12.706;2023-12-20T11:20:23;5.30;;;1.48;;
83026;SDS011;72842;56.038;12.706;2023-12-20T11:22:59;3.20;;;0.93;;
83026;SDS011;72842;56.038;12.706;2023-12-20T11:25:25;5.05;;;1.08;;
83026;SDS011;72842;56.038;12.706;2023-12-20T11:28:07;3.67;;;1.00;;
83026;SDS011;72842;56.038;12.706;2023-12-20T11:30:45;2.92;;;1.27;;
83026;SDS011;72842;56.038;12.706;2023-12-20T11:33:12;4.10;;;1.50;;
83026;SDS011;72842;56.038;12.706;2023-12-20T11:35:39;2.33;;;1.23;;
83026;SDS011;72842;56.038;12.706;2023-12-20T11:38:07;4.80;;;1.30;;
83026;SDS011;72842;56.038;12.706;2023-12-20T11:40:34;4.38;;;1.02;;
83026;SDS011;72842;56.038;12.706;2023-12-20T11:43:00;3.22;;;1.50;;
83026;SDS011;72842;56.038;12.706;2023-12-20T11:45:25;3.75;;;1.27;;
83026;SDS011;72842;56.038;12.706;2023-12-20T11:47:52;3.60;;;1.27;;
83026;SDS011;72842;56.038;12.706;2023-12-20T11:50:21;4.32;;;1.38;;
83026;SDS011;72842;56.038;12.706;2023-12-20T11:52:48;3.58;;;1.25;;
83026;SDS011;72842;56.038;12.706;2023-12-20T11:55:14;3.47;;;1.40;;
83026;SDS011;72842;56.038;12.706;2023-12-20T11:57:39;4.07;;;1.85;;
83026;SDS011;72842;56.038;12.706;2023-12-20T12:00:05;4.70;;;1.35;;
83026;SDS011;72842;56.038;12.706;2023-12-20T12:02:32;7.47;;;1.92;;
83026;SDS011;72842;56.038;12.706;2023-12-20T12:04:57;3.75;;;1.42;;
83026;SDS011;72842;56.038;12.706;2023-12-20T12:07:24;3.92;;;1.85;;
83026;SDS011;72842;56.038;12.706;2023-12-20T12:09:50;3.75;;;1.67;;
83026;SDS011;72842;56.038;12.706;2023-12-20T12:12:16;8.98;;;2.15;;
83026;SDS011;72842;56.038;12.706;2023-12-20T12:14:45;6.32;;;2.08;;
83026;SDS011;72842;56.038;12.706;2023-12-20T12:17:11;6.95;;;2.25;;
83026;SDS011;72842;56.038;12.706;2023-12-20T12:19:40;6.63;;;2.10;;
83026;SDS011;72842;56.038;12.706;2023-12-20T12:22:13;8.32;;;2.45;;
83026;SDS011;72842;56.038;12.706;2023-12-20T12:24:41;6.38;;;1.95;;
83026;SDS011;72842;56.038;12.706;2023-12-20T12:27:09;4.53;;;1.92;;
83026;SDS011;72842;56.038;12.706;2023-12-20T12:29:35;8.82;;;2.22;;
83026;SDS011;72842;56.038;12.706;2023-12-20T12:32:04;7.60;;;2.50;;
83026;SDS011;72842;56.038;12.706;2023-12-20T12:34:30;8.32;;;2.72;;
83026;SDS011;72842;56.038;12.706;2023-12-20T12:36:56;7.10;;;2.35;;
83026;SDS011;72842;56.038;12.706;2023-12-20T12:39:25;6.72;;;2.30;;
83026;SDS011;72842;56.038;12.706;2023-12-20T12:41:50;7.35;;;2.58;;
83026;SDS011;72842;56.038;12.706;2023-12-20T12:44:16;8.98;;;2.50;;
83026;SDS011;72842;56.038;12.706;2023-12-20T12:46:43;6.18;;;2.17;;
83026;SDS011;72842;56.038;12.706;2023-12-20T12:49:09;7.60;;;2.67;;
83026;SDS011;72842;56.038;12.706;2023-12-20T12:51:35;7.47;;;2.85;;
83026;SDS011;72842;56.038;12.706;2023-12-20T12:54:00;8.85;;;2.40;;
83026;SDS011;72842;56.038;12.706;2023-12-20T12:56:26;8.27;;;2.20;;
83026;SDS011;72842;56.038;12.706;2023-12-20T12:58:51;9.25;;;2.75;;
83026;SDS011;72842;56.038;12.706;2023-12-20T13:01:16;5.43;;;2.08;;
83026;SDS011;72842;56.038;12.706;2023-12-20T13:03:42;6.85;;;1.98;;
83026;SDS011;72842;56.038;12.706;2023-12-20T13:06:08;5.40;;;1.98;;
83026;SDS011;72842;56.038;12.706;2023-12-20T13:08:34;8.15;;;2.25;;
83026;SDS011;72842;56.038;12.706;2023-12-20T13:10:59;6.50;;;2.53;;
83026;SDS011;72842;56.038;12.706;2023-12-20T13:13:28;6.35;;;2.22;;
83026;SDS011;72842;56.038;12.706;2023-12-20T13:15:54;7.30;;;2.30;;
83026;SDS011;72842;56.038;12.706;2023-12-20T13:18:20;6.25;;;2.17;;
83026;SDS011;72842;56.038;12.706;2023-12-20T13:20:46;8.00;;;2.20;;
83026;SDS011;72842;56.038;12.706;2023-12-20T13:23:12;7.35;;;1.88;;
83026;SDS011;72842;56.038;12.706;2023-12-20T13:25:37;4.75;;;1.95;;
83026;SDS011;72842;56.038;12.706;2023-12-20T13:28:03;8.30;;;2.72;;
83026;SDS011;72842;56.038;12.706;2023-12-20T13:30:28;6.70;;;2.13;;
83026;SDS011;72842;56.038;12.706;2023-12-20T13:32:54;4.88;;;1.73;;
83026;SDS011;72842;56.038;12.706;2023-12-20T13:35:20;5.32;;;2.15;;
83026;SDS011;72842;56.038;12.706;2023-12-20T13:37:46;5.55;;;1.85;;
83026;SDS011;72842;56.038;12.706;2023-12-20T13:40:11;5.70;;;2.83;;
83026;SDS011;72842;56.038;12.706;2023-12-20T13:42:37;4.72;;;1.55;;
83026;SDS011;72842;56.038;12.706;2023-12-20T13:45:07;5.18;;;2.20;;
83026;SDS011;72842;56.038;12.706;2023-12-20T13:47:33;5.85;;;2.17;;
83026;SDS011;72842;56.038;12.706;2023-12-20T13:49:58;5.50;;;1.92;;
83026;SDS011;72842;56.038;12.706;2023-12-20T13:52:24;5.97;;;2.03;;
83026;SDS011;72842;56.038;12.706;2023-12-20T13:54:49;7.15;;;2.45;;
83026;SDS011;72842;56.038;12.706;2023-12-20T13:57:15;7.90;;;2.38;;
83026;SDS011;72842;56.038;12.706;2023-12-20T13:59:41;5.68;;;2.10;;
83026;SDS011;72842;56.038;12.706;2023-12-20T14:02:06;9.02;;;2.97;;
83026;SDS011;72842;56.038;12.706;2023-12-20T14:04:32;6.60;;;2.45;;
83026;SDS011;72842;56.038;12.706;2023-12-20T14:06:57;8.10;;;1.70;;
83026;SDS011;72842;56.038;12.706;2023-12-20T14:09:23;7.88;;;2.25;;
83026;SDS011;72842;56.038;12.706;2023-12-20T14:11:48;4.18;;;2.47;;
83026;SDS011;72842;56.038;12.706;2023-12-20T14:14:14;8.45;;;2.42;;
83026;SDS011;72842;56.038;12.706;2023-12-20T14:16:39;7.10;;;2.28;;
83026;SDS011;72842;56.038;12.706;2023-12-20T14:19:05;5.15;;;2.20;;
83026;SDS011;72842;56.038;12.706;2023-12-20T14:21:32;5.82;;;2.45;;
83026;SDS011;72842;56.038;12.706;2023-12-20T14:23:58;7.47;;;2.35;;
83026;SDS011;72842;56.038;12.706;2023-12-20T14:26:25;5.10;;;2.60;;
83026;SDS011;72842;56.038;12.706;2023-12-20T14:28:52;8.00;;;3.05;;
83026;SDS011;72842;56.038;12.706;2023-12-20T14:31:18;4.65;;;1.92;;
83026;SDS011;72842;56.038;12.706;2023-12-20T14:33:43;9.18;;;3.08;;
83026;SDS011;72842;56.038;12.706;2023-12-20T14:36:09;4.50;;;1.95;;